Time;durP1;ratioP1;P1;durP2;ratioP2;P2;SDS_P1;SDS_P2;PMS_P1;PMS_P2;Temp;Humidity;BMP_temperature;BMP_pressure;BME280_temperature;BME280_humidity;BME280_pressure;Samples;Min_cycle;Max_cycle;Signal;HPM_P1;HPM_P2
2023/07/28 00:00:10;;;;;;;2.92;2.22;;;;;;;;;;5115193;28;20110;-70
2023/07/28 00:02:36;;;;;;;3.58;3.25;;;;;;;;;;5115810;28;20027;-70
2023/07/28 00:05:02;;;;;;;2.53;2.20;;;;;;;;;;5115608;28;20023;-69
2023/07/28 00:07:28;;;;;;;3.35;2.35;;;;;;;;;;5115528;28;20372;-70
2023/07/28 00:09:54;;;;;;;4.32;2.85;;;;;;;;;;5116046;28;20034;-71
2023/07/28 00:12:21;;;;;;;3.13;2.58;;;;;;;;;;5114882;28;20373;-69
2023/07/28 00:14:47;;;;;;;2.92;2.63;;;;;;;;;;5115567;28;20028;-70
2023/07/28 00:17:13;;;;;;;3.17;2.20;;;;;;;;;;5115150;28;20128;-70
2023/07/28 00:19:39;;;;;;;2.65;2.30;;;;;;;;;;5114711;28;20047;-70
2023/07/28 00:22:05;;;;;;;2.90;2.30;;;;;;;;;;5114860;28;20026;-69
2023/07/28 00:24:31;;;;;;;3.20;2.20;;;;;;;;;;5115508;28;20035;-70
2023/07/28 00:26:57;;;;;;;2.85;2.45;;;;;;;;;;5122594;27;20081;-70
2023/07/28 00:29:23;;;;;;;3.38;2.40;;;;;;;;;;5135274;27;20073;-70
2023/07/28 00:31:49;;;;;;;2.65;2.25;;;;;;;;;;5136001;27;20043;-70
2023/07/28 00:34:15;;;;;;;2.97;2.15;;;;;;;;;;5134952;27;20488;-70
2023/07/28 00:36:41;;;;;;;3.00;2.55;;;;;;;;;;5135816;27;20031;-70
2023/07/28 00:39:07;;;;;;;2.55;2.35;;;;;;;;;;5134964;27;20144;-70
2023/07/28 00:41:33;;;;;;;4.53;2.42;;;;;;;;;;5135440;27;20012;-70
2023/07/28 00:43:59;;;;;;;3.50;2.42;;;;;;;;;;5135587;27;20088;-70
2023/07/28 00:46:25;;;;;;;2.63;2.40;;;;;;;;;;5135133;27;20027;-70
2023/07/28 00:48:51;;;;;;;2.40;2.20;;;;;;;;;;5135957;27;20027;-70
2023/07/28 00:51:17;;;;;;;2.97;2.40;;;;;;;;;;5135148;27;20023;-70
2023/07/28 00:53:43;;;;;;;2.70;2.30;;;;;;;;;;5135266;27;20113;-71
2023/07/28 00:56:11;;;;;;;2.60;2.30;;;;;;;;;;5134793;27;20031;-70
2023/07/28 00:58:37;;;;;;;3.03;2.35;;;;;;;;;;5133192;27;20076;-70
2023/07/28 01:01:03;;;;;;;1.83;1.73;;;;;;;;;;5115078;28;20406;-71
2023/07/28 01:03:29;;;;;;;2.90;2.40;;;;;;;;;;5114246;28;20463;-70
2023/07/28 01:06:19;;;;;;;3.40;2.20;;;;;;;;;;5114829;28;20066;-70
2023/07/28 01:08:45;;;;;;;2.40;2.20;;;;;;;;;;5114754;28;20016;-70
2023/07/28 01:11:11;;;;;;;2.35;2.03;;;;;;;;;;5113876;28;20099;-70
2023/07/28 01:13:37;;;;;;;2.78;2.35;;;;;;;;;;5114586;28;20086;-71
2023/07/28 01:16:03;;;;;;;3.42;2.30;;;;;;;;;;5114627;28;20039;-70
2023/07/28 01:18:29;;;;;;;4.13;2.25;;;;;;;;;;5113219;28;20051;-70
2023/07/28 01:20:57;;;;;;;2.47;1.63;;;;;;;;;;5114453;28;20357;-70
2023/07/28 01:23:32;;;;;;;3.53;2.33;;;;;;;;;;5113691;28;20149;-70
2023/07/28 01:26:06;;;;;;;2.95;2.15;;;;;;;;;;5114566;28;20024;-70
2023/07/28 01:28:35;;;;;;;2.20;2.00;;;;;;;;;;5093482;28;20515;-70
2023/07/28 01:31:02;;;;;;;2.72;2.15;;;;;;;;;;5093971;28;20043;-70
2023/07/28 01:33:29;;;;;;;3.58;2.42;;;;;;;;;;5092982;28;20043;-69
2023/07/28 01:35:55;;;;;;;3.45;2.35;;;;;;;;;;5093774;28;20095;-69
2023/07/28 01:38:21;;;;;;;2.38;2.03;;;;;;;;;;5092978;28;20039;-69
2023/07/28 01:40:47;;;;;;;2.42;2.22;;;;;;;;;;5093653;28;20017;-70
2023/07/28 01:43:13;;;;;;;3.20;2.50;;;;;;;;;;5092834;28;20368;-69
2023/07/28 01:45:39;;;;;;;2.53;2.08;;;;;;;;;;5093621;28;20042;-69
2023/07/28 01:48:05;;;;;;;2.67;2.35;;;;;;;;;;5093669;28;20447;-70
2023/07/28 01:50:31;;;;;;;3.10;2.45;;;;;;;;;;5092572;28;20028;-69
2023/07/28 01:52:57;;;;;;;2.42;2.13;;;;;;;;;;5093566;28;20476;-70
2023/07/28 01:55:23;;;;;;;3.45;2.38;;;;;;;;;;5092597;28;20027;-70
2023/07/28 01:57:55;;;;;;;2.58;2.30;;;;;;;;;;5092848;28;20024;-70
2023/07/28 02:00:21;;;;;;;2.38;1.80;;;;;;;;;;5092446;28;20058;-70
2023/07/28 02:02:47;;;;;;;3.03;1.80;;;;;;;;;;5093227;28;20028;-70
2023/07/28 02:05:13;;;;;;;2.47;2.28;;;;;;;;;;5092405;28;20060;-69
2023/07/28 02:07:39;;;;;;;2.67;2.47;;;;;;;;;;5093190;28;20059;-69
2023/07/28 02:10:06;;;;;;;2.70;2.17;;;;;;;;;;5093181;28;20020;-69
2023/07/28 02:12:32;;;;;;;3.97;2.22;;;;;;;;;;5092010;28;20089;-70
2023/07/28 02:14:58;;;;;;;3.90;2.55;;;;;;;;;;5092949;28;20028;-69
2023/07/28 02:17:24;;;;;;;3.20;2.38;;;;;;;;;;5092451;28;20032;-69
2023/07/28 02:19:50;;;;;;;2.85;2.38;;;;;;;;;;5078526;28;20053;-69
2023/07/28 02:22:16;;;;;;;3.25;2.40;;;;;;;;;;5071878;28;20046;-69
2023/07/28 02:24:42;;;;;;;3.13;2.30;;;;;;;;;;5072332;28;20029;-69
2023/07/28 02:27:08;;;;;;;2.80;2.30;;;;;;;;;;5090588;28;20041;-69
2023/07/28 02:29:34;;;;;;;2.50;2.30;;;;;;;;;;5111403;28;20468;-69
2023/07/28 02:32:00;;;;;;;2.53;2.30;;;;;;;;;;5112914;28;20024;-69
2023/07/28 02:34:26;;;;;;;2.42;2.22;;;;;;;;;;5112231;28;20027;-69
2023/07/28 02:36:52;;;;;;;2.60;2.40;;;;;;;;;;5113025;28;20456;-70
2023/07/28 02:39:18;;;;;;;2.83;2.63;;;;;;;;;;5112065;28;20055;-69
2023/07/28 02:41:45;;;;;;;4.30;2.95;;;;;;;;;;5112880;28;20020;-69
2023/07/28 02:44:11;;;;;;;3.90;2.97;;;;;;;;;;5112358;28;20031;-69
2023/07/28 02:46:37;;;;;;;4.78;3.08;;;;;;;;;;5112353;28;20091;-69
2023/07/28 02:49:03;;;;;;;5.85;3.60;;;;;;;;;;5112668;28;20015;-71
2023/07/28 02:51:30;;;;;;;3.95;3.17;;;;;;;;;;5112016;28;20027;-69
2023/07/28 02:53:56;;;;;;;4.82;3.70;;;;;;;;;;5112721;28;20030;-69
2023/07/28 02:56:22;;;;;;;7.40;4.53;;;;;;;;;;5111804;28;20032;-69
2023/07/28 02:58:49;;;;;;;9.68;5.25;;;;;;;;;;5112626;28;20030;-69
2023/07/28 03:01:15;;;;;;;7.75;4.63;;;;;;;;;;5111836;28;20027;-68
2023/07/28 03:03:41;;;;;;;5.60;4.28;;;;;;;;;;5112593;28;20480;-69
2023/07/28 03:06:07;;;;;;;7.63;4.50;;;;;;;;;;5112510;28;20023;-69
2023/07/28 03:08:33;;;;;;;5.78;4.45;;;;;;;;;;5110610;28;20675;-69
2023/07/28 03:10:59;;;;;;;8.02;4.25;;;;;;;;;;5112547;28;20030;-70
2023/07/28 03:13:25;;;;;;;5.72;4.57;;;;;;;;;;5111553;28;20422;-69
2023/07/28 03:15:51;;;;;;;6.50;4.53;;;;;;;;;;5112339;28;20061;-69
2023/07/28 03:18:17;;;;;;;5.60;3.90;;;;;;;;;;5111977;28;20023;-69
2023/07/28 03:20:43;;;;;;;5.07;3.97;;;;;;;;;;5132875;28;20027;-69
2023/07/28 03:23:09;;;;;;;4.88;3.30;;;;;;;;;;5133000;28;20032;-69
2023/07/28 03:25:35;;;;;;;4.45;3.72;;;;;;;;;;5131993;28;20658;-70
2023/07/28 03:28:01;;;;;;;5.88;3.70;;;;;;;;;;5116136;28;20019;-70
2023/07/28 03:30:27;;;;;;;4.38;3.97;;;;;;;;;;5111445;28;20031;-69
2023/07/28 03:32:53;;;;;;;4.50;3.55;;;;;;;;;;5112344;28;20027;-69
2023/07/28 03:35:19;;;;;;;7.85;3.53;;;;;;;;;;5111434;28;20110;-69
2023/07/28 03:37:45;;;;;;;6.47;3.72;;;;;;;;;;5112341;28;20023;-69
2023/07/28 03:40:10;;;;;;;5.50;4.15;;;16.60;99.90;;;;;;5112954;28;20066;-70
2023/07/28 03:42:36;;;;;;;8.55;4.82;;;16.50;99.90;;;;;;5113618;28;20832;-71
2023/07/28 03:45:02;;;;;;;6.63;4.50;;;16.60;99.90;;;;;;5114089;28;20031;-71
2023/07/28 03:47:27;;;;;;;7.22;4.10;;;16.70;99.90;;;;;;5112092;28;20019;-70
2023/07/28 03:49:53;;;;;;;5.05;4.07;;;16.70;99.90;;;;;;5112195;28;20376;-69
2023/07/28 03:52:19;;;;;;;5.00;3.83;;;16.60;99.90;;;;;;5111274;28;20156;-69
2023/07/28 03:54:44;;;;;;;5.00;4.18;;;16.60;99.90;;;;;;5112032;28;20049;-70
2023/07/28 03:57:10;;;;;;;6.00;4.15;;;16.50;99.90;;;;;;5112100;28;20043;-70
2023/07/28 03:59:35;;;;;;;5.32;3.83;;;16.50;99.90;;;;;;5111220;28;20020;-70
2023/07/28 04:02:01;;;;;;;9.00;4.60;;;16.50;99.90;;;;;;5112006;28;20031;-70
2023/07/28 04:04:27;;;;;;;4.30;3.90;;;16.50;99.90;;;;;;5111251;28;20035;-70
2023/07/28 04:06:53;;;;;;;5.63;3.85;;;16.50;99.90;;;;;;5112066;28;20028;-70
2023/07/28 04:09:19;;;;;;;4.50;3.72;;;16.50;99.90;;;;;;5111322;28;20023;-69
2023/07/28 04:11:45;;;;;;;4.85;3.72;;;16.50;99.90;;;;;;5112033;28;20063;-70
2023/07/28 04:14:11;;;;;;;5.53;3.17;;;16.60;99.90;;;;;;5111897;28;20089;-70
2023/07/28 04:16:37;;;;;;;5.57;3.55;;;16.60;99.90;;;;;;5111126;28;20039;-70
2023/07/28 04:19:03;;;;;;;5.03;3.63;;;16.60;99.90;;;;;;5111242;28;20043;-70
2023/07/28 04:21:29;;;;;;;3.42;3.00;;;16.70;99.90;;;;;;5114562;28;20031;-70
2023/07/28 04:23:55;;;;;;;4.10;3.20;;;16.70;99.90;;;;;;5115537;28;20043;-70
2023/07/28 04:26:24;;;;;;;5.57;3.72;;;16.70;99.90;;;;;;5117010;27;20426;-70
2023/07/28 04:28:50;;;;;;;3.30;2.93;;;16.70;99.90;;;;;;5135950;27;20520;-71
2023/07/28 04:31:15;;;;;;;4.00;3.08;;;16.80;99.90;;;;;;5135673;27;20027;-70
2023/07/28 04:33:41;;;;;;;4.93;2.97;;;16.80;99.90;;;;;;5135219;27;20055;-70
2023/07/28 04:36:07;;;;;;;4.38;3.08;;;16.90;99.90;;;;;;5135534;27;20027;-70
2023/07/28 04:38:33;;;;;;;3.85;3.13;;;16.90;99.90;;;;;;5135004;27;20394;-70
2023/07/28 04:40:59;;;;;;;3.35;2.75;;;17.00;99.90;;;;;;5135523;27;20031;-70
2023/07/28 04:43:24;;;;;;;3.28;2.53;;;17.00;99.90;;;;;;5134959;27;20062;-70
2023/07/28 04:45:50;;;;;;;3.90;2.60;;;17.10;99.90;;;;;;5135379;27;20023;-71
2023/07/28 04:48:15;;;;;;;3.05;2.70;;;17.10;99.90;;;;;;5135588;27;20102;-71
2023/07/28 04:50:41;;;;;;;3.28;2.70;;;17.10;99.90;;;;;;5134411;27;20035;-70
2023/07/28 04:53:07;;;;;;;4.05;3.22;;;17.10;99.90;;;;;;5135483;27;20107;-70
2023/07/28 04:55:32;;;;;;;3.00;2.70;;;17.10;99.90;;;;;;5134586;27;20095;-70
2023/07/28 04:57:58;;;;;;;5.05;2.95;;;17.10;99.90;;;;;;5135675;27;20421;-70
2023/07/28 05:00:23;;;;;;;6.05;3.28;;;17.10;99.90;;;;;;5134516;27;20023;-69
2023/07/28 05:02:49;;;;;;;4.30;2.83;;;17.10;99.90;;;;;;5135182;27;20160;-70
2023/07/28 05:05:15;;;;;;;5.07;2.53;;;17.10;99.90;;;;;;5135172;27;20489;-71
2023/07/28 05:07:41;;;;;;;3.20;2.90;;;17.00;99.90;;;;;;5134389;27;20053;-70
2023/07/28 05:10:07;;;;;;;4.15;3.40;;;17.00;99.90;;;;;;5135510;27;20123;-71
2023/07/28 05:12:33;;;;;;;4.57;3.30;;;16.90;99.90;;;;;;5134342;27;20065;-69
2023/07/28 05:14:59;;;;;;;5.15;3.15;;;16.90;99.90;;;;;;5135178;27;20058;-69
2023/07/28 05:17:24;;;;;;;3.38;3.05;;;16.80;99.90;;;;;;5134270;27;20064;-69
2023/07/28 05:19:50;;;;;;;4.57;3.58;;;16.80;99.90;;;;;;5134454;27;20507;-69
2023/07/28 05:22:16;;;;;;;4.00;3.60;;;16.70;99.90;;;;;;5134808;27;20019;-70
2023/07/28 05:24:42;;;;;;;4.30;3.88;;;16.80;99.90;;;;;;5134037;27;20111;-70
2023/07/28 05:27:16;;;;;;;4.22;3.45;;;16.70;99.90;;;;;;5125936;27;20031;-71
2023/07/28 05:29:42;;;;;;;5.55;4.05;;;16.70;99.90;;;;;;5113143;28;20035;-70
2023/07/28 05:32:08;;;;;;;3.60;3.30;;;16.70;99.90;;;;;;5113501;28;20028;-71
2023/07/28 05:34:34;;;;;;;4.18;3.72;;;16.70;99.90;;;;;;5113325;28;20035;-70
2023/07/28 05:36:59;;;;;;;5.75;3.92;;;16.70;99.90;;;;;;5114445;28;20119;-71
2023/07/28 05:39:25;;;;;;;8.98;4.10;;;16.70;99.90;;;;;;5113130;28;20059;-70
2023/07/28 05:41:50;;;;;;;4.55;3.67;;;16.70;99.90;;;;;;5114100;28;20030;-71
2023/07/28 05:44:16;;;;;;;4.60;4.13;;;16.70;99.90;;;;;;5113714;28;20436;-70
2023/07/28 05:46:41;;;;;;;4.90;3.90;;;16.80;99.90;;;;;;5112922;28;20028;-71
2023/07/28 05:49:07;;;;;;;5.18;4.22;;;16.70;99.90;;;;;;5113712;28;20019;-70
2023/07/28 05:51:32;;;;;;;3.85;3.53;;;16.80;99.90;;;;;;5113089;28;20027;-70
2023/07/28 05:53:58;;;;;;;5.82;4.10;;;16.80;99.90;;;;;;5113854;28;20514;-72
2023/07/28 05:56:24;;;;;;;5.07;3.80;;;16.80;99.90;;;;;;5113339;28;20112;-69
2023/07/28 05:58:50;;;;;;;5.63;4.15;;;16.80;99.90;;;;;;5113892;28;20023;-71
2023/07/28 06:01:15;;;;;;;6.40;4.32;;;16.90;99.90;;;;;;5113727;28;20027;-70
2023/07/28 06:03:41;;;;;;;4.40;4.00;;;16.90;99.90;;;;;;5112903;28;20836;-71
2023/07/28 06:06:07;;;;;;;5.32;4.75;;;16.90;99.90;;;;;;5113765;28;20024;-70
2023/07/28 06:08:32;;;;;;;5.32;4.32;;;16.90;99.90;;;;;;5112742;28;20024;-70
2023/07/28 06:10:58;;;;;;;5.55;5.03;;;16.90;99.90;;;;;;5113535;28;20031;-71
2023/07/28 06:13:24;;;;;;;5.80;4.68;;;16.90;99.90;;;;;;5113133;28;20039;-69
2023/07/28 06:15:49;;;;;;;4.70;4.25;;;16.90;99.90;;;;;;5112723;28;20063;-71
2023/07/28 06:18:16;;;;;;;5.55;4.65;;;16.90;99.90;;;;;;5113440;28;20479;-71
2023/07/28 06:20:43;;;;;;;5.45;4.22;;;16.90;99.90;;;;;;5111506;28;20403;-70
2023/07/28 06:23:08;;;;;;;7.95;5.03;;;16.90;99.90;;;;;;5113199;28;20452;-70
2023/07/28 06:25:34;;;;;;;5.38;4.03;;;16.90;99.90;;;;;;5112431;28;20032;-70
2023/07/28 06:27:59;;;;;;;6.53;4.93;;;17.00;99.90;;;;;;5129633;27;20034;-70
2023/07/28 06:30:25;;;;;;;7.38;5.07;;;17.00;99.90;;;;;;5133213;27;20019;-71
2023/07/28 06:32:51;;;;;;;6.53;4.47;;;17.00;99.90;;;;;;5133445;27;20200;-70
2023/07/28 06:35:17;;;;;;;5.72;4.53;;;17.00;99.90;;;;;;5135116;27;20034;-70
2023/07/28 06:37:42;;;;;;;5.82;4.43;;;17.00;99.90;;;;;;5134529;27;20031;-73
2023/07/28 06:40:09;;;;;;;6.55;4.10;;;17.00;99.90;;;;;;5135064;27;20024;-71
2023/07/28 06:42:36;;;;;;;7.75;4.32;;;17.00;99.90;;;;;;5136151;27;20062;-71
2023/07/28 06:45:02;;;;;;;4.65;4.13;;;17.00;99.90;;;;;;5137294;27;20027;-72
2023/07/28 06:47:28;;;;;;;7.38;4.38;;;17.10;99.90;;;;;;5134766;27;20027;-69
2023/07/28 06:49:54;;;;;;;6.72;4.63;;;17.10;99.90;;;;;;5115529;27;20076;-70
2023/07/28 06:52:19;;;;;;;4.57;4.10;;;17.10;99.90;;;;;;5133098;27;20031;-71
2023/07/28 06:54:47;;;;;;;5.80;4.45;;;17.20;99.90;;;;;;5132180;27;20035;-71
2023/07/28 06:57:12;;;;;;;7.10;4.35;;;17.20;99.90;;;;;;5133273;27;20027;-71
2023/07/28 06:59:38;;;;;;;6.43;4.07;;;17.30;99.90;;;;;;5132443;27;20027;-70
2023/07/28 07:02:04;;;;;;;7.15;4.50;;;17.40;99.90;;;;;;5133173;27;20023;-71
2023/07/28 07:04:29;;;;;;;6.25;3.97;;;17.60;99.90;;;;;;5133042;27;20394;-70
2023/07/28 07:06:55;;;;;;;4.70;4.13;;;17.60;99.90;;;;;;5133000;27;20027;-71
2023/07/28 07:09:20;;;;;;;4.40;3.47;;;17.70;99.90;;;;;;5133111;27;20027;-71
2023/07/28 07:11:46;;;;;;;4.50;3.63;;;17.80;99.90;;;;;;5132357;27;20027;-71
2023/07/28 07:14:12;;;;;;;4.93;4.00;;;17.80;99.90;;;;;;5133130;27;20031;-71
2023/07/28 07:16:37;;;;;;;7.88;4.10;;;17.90;99.90;;;;;;5132282;27;20026;-71
2023/07/28 07:19:03;;;;;;;3.63;3.33;;;18.00;99.90;;;;;;5132458;27;20403;-71
2023/07/28 07:21:29;;;;;;;3.50;3.20;;;18.10;99.90;;;;;;5132370;27;20250;-70
2023/07/28 07:23:55;;;;;;;3.85;3.50;;;18.10;99.90;;;;;;5132474;28;20118;-70
2023/07/28 07:26:20;;;;;;;5.28;3.72;;;18.20;99.90;;;;;;5130528;28;20076;-70
2023/07/28 07:28:46;;;;;;;3.88;3.15;;;18.20;99.90;;;;;;5111542;28;20023;-70
2023/07/28 07:31:13;;;;;;;3.58;3.28;;;18.30;99.90;;;;;;5112383;28;20024;-71
2023/07/28 07:33:39;;;;;;;5.53;3.83;;;18.40;99.90;;;;;;5111391;28;20031;-71
2023/07/28 07:36:04;;;;;;;3.78;3.13;;;18.50;99.90;;;;;;5112310;28;20426;-71
2023/07/28 07:38:30;;;;;;;4.03;3.28;;;18.70;99.90;;;;;;5111857;28;20103;-70
2023/07/28 07:40:56;;;;;;;5.28;3.90;;;18.90;99.90;;;;;;5111890;28;20493;-71
2023/07/28 07:43:21;;;;;;;4.63;4.05;;;19.10;99.90;;;;;;5112113;28;20031;-70
2023/07/28 07:45:47;;;;;;;8.25;3.50;;;19.40;99.90;;;;;;5111303;28;20786;-71
2023/07/28 07:48:13;;;;;;;4.00;3.15;;;19.60;99.90;;;;;;5112281;28;20114;-70
2023/07/28 07:50:39;;;;;;;7.18;3.42;;;19.90;99.90;;;;;;5111244;28;20422;-71
2023/07/28 07:53:04;;;;;;;4.32;3.17;;;20.10;99.90;;;;;;5112087;28;20020;-70
2023/07/28 07:55:33;;;;;;;4.90;3.10;;;20.10;99.90;;;;;;5113785;28;20090;-69
2023/07/28 07:57:59;;;;;;;3.88;2.63;;;20.20;99.90;;;;;;5116085;28;20031;-70
2023/07/28 08:00:24;;;;;;;3.90;2.85;;;20.20;99.90;;;;;;5116413;28;20476;-71
2023/07/28 08:02:50;;;;;;;3.00;2.40;;;20.20;99.90;;;;;;5115268;28;20284;-72
2023/07/28 08:05:16;;;;;;;5.60;3.78;;;20.10;99.90;;;;;;5116124;28;20055;-71
2023/07/28 08:07:42;;;;;;;5.72;3.75;;;20.20;99.90;;;;;;5115215;28;20031;-70
2023/07/28 08:10:08;;;;;;;4.43;3.65;;;20.20;99.90;;;;;;5116127;28;20020;-72
2023/07/28 08:12:34;;;;;;;5.40;4.45;;;20.30;99.90;;;;;;5115083;28;20028;-69
2023/07/28 08:15:00;;;;;;;6.90;3.85;;;20.30;99.90;;;;;;5116121;28;20057;-70
2023/07/28 08:17:25;;;;;;;5.00;3.58;;;20.40;99.90;;;;;;5115791;28;20057;-72
2023/07/28 08:19:51;;;;;;;6.03;4.05;;;20.40;99.90;;;;;;5114434;28;20671;-71
2023/07/28 08:22:16;;;;;;;6.50;4.18;;;20.40;99.90;;;;;;5115712;28;20429;-70
2023/07/28 08:24:42;;;;;;;7.50;4.53;;;20.40;99.90;;;;;;5114878;28;20063;-70
2023/07/28 08:27:08;;;;;;;5.75;4.53;;;20.30;99.90;;;;;;5124325;27;20030;-70
2023/07/28 08:29:33;;;;;;;7.38;4.80;;;20.30;99.90;;;;;;5135477;27;20040;-69
2023/07/28 08:31:59;;;;;;;8.07;4.93;;;20.20;99.90;;;;;;5136221;27;20110;-71
2023/07/28 08:34:24;;;;;;;6.10;4.32;;;20.20;99.90;;;;;;5135994;27;20031;-71
2023/07/28 08:36:50;;;;;;;6.25;4.50;;;20.20;99.90;;;;;;5134815;27;20134;-70
2023/07/28 08:39:17;;;;;;;7.32;4.68;;;20.20;99.90;;;;;;5135848;27;20394;-70
2023/07/28 08:41:43;;;;;;;4.95;4.05;;;20.40;99.90;;;;;;5135032;27;20050;-70
2023/07/28 08:44:09;;;;;;;6.18;3.60;;;20.40;99.90;;;;;;5135567;27;20024;-70
2023/07/28 08:46:35;;;;;;;6.75;3.78;;;20.50;99.90;;;;;;5134741;27;20038;-69
2023/07/28 08:49:01;;;;;;;4.22;3.58;;;20.70;99.90;;;;;;5135488;27;20468;-71
2023/07/28 08:51:27;;;;;;;5.25;3.97;;;20.70;99.90;;;;;;5135618;27;20505;-70
2023/07/28 08:53:52;;;;;;;6.70;4.25;;;20.80;99.90;;;;;;5134621;27;20034;-71
2023/07/28 08:56:18;;;;;;;8.73;4.40;;;20.90;99.90;;;;;;5135481;27;20031;-70
2023/07/28 08:58:44;;;;;;;7.05;4.88;;;21.10;99.90;;;;;;5134744;27;20027;-71
2023/07/28 09:01:11;;;;;;;7.80;4.65;;;21.30;99.90;;;;;;5135256;27;20070;-71
2023/07/28 09:03:41;;;;;;;6.38;4.60;;;21.30;99.90;;;;;;5134575;27;20492;-70
2023/07/28 09:06:10;;;;;;;8.13;4.50;;;21.30;99.90;;;;;;5133953;27;20109;-70
2023/07/28 09:08:36;;;;;;;9.00;5.18;;;21.30;99.90;;;;;;5134768;27;20448;-70
2023/07/28 09:11:05;;;;;;;10.45;4.60;;;21.20;99.90;;;;;;5135220;27;20019;-69
2023/07/28 09:13:38;;;;;;;6.53;5.18;;;21.20;99.90;;;;;;5135140;27;20523;-70
2023/07/28 09:16:03;;;;;;;11.10;5.65;;;21.20;99.90;;;;;;5135207;27;20038;-70
2023/07/28 09:18:29;;;;;;;8.57;5.90;;;21.20;99.90;;;;;;5135271;27;20066;-71
2023/07/28 09:20:55;;;;;;;9.43;5.57;;;21.20;99.90;;;;;;5133854;27;20054;-71
2023/07/28 09:23:29;;;;;;;11.80;5.15;;;21.10;99.90;;;;;;5135067;27;20080;-71
2023/07/28 09:26:05;;;;;;;6.30;4.57;;;21.00;99.90;;;;;;5134224;27;20042;-70
2023/07/28 09:28:41;;;;;;;13.05;4.63;;;21.00;99.90;;;;;;5094037;28;20081;-70
2023/07/28 09:31:07;;;;;;;10.90;5.60;;;20.90;99.90;;;;;;5094131;28;20028;-70
2023/07/28 09:33:35;;;;;;;9.93;6.03;;;20.70;99.90;;;;;;5094020;28;20036;-71
2023/07/28 09:36:12;;;;;;;10.40;5.03;;;20.70;99.90;;;;;;5093439;28;20028;-70
2023/07/28 09:38:40;;;;;;;12.43;5.43;;;20.80;99.90;;;;;;5093231;28;20107;-69
2023/07/28 09:41:09;;;;;;;9.05;5.03;;;20.90;99.90;;;;;;5093666;28;20024;-71
2023/07/28 09:43:35;;;;;;;9.23;5.68;;;21.00;99.90;;;;;;5093689;28;20016;-71
2023/07/28 09:46:06;;;;;;;8.68;5.18;;;21.20;99.90;;;;;;5093080;28;20032;-72
2023/07/28 09:48:33;;;;;;;10.77;5.53;;;21.60;99.90;;;;;;5096199;28;20035;-71
2023/07/28 09:51:04;;;;;;;12.00;5.45;;;21.90;99.90;;;;;;5094593;28;20617;-71
2023/07/28 09:53:34;;;;;;;10.43;5.68;;;22.00;99.90;;;;;;5093720;28;20028;-70
2023/07/28 09:56:02;;;;;;;7.45;4.80;;;22.30;99.90;;;;;;5092768;28;20126;-71
2023/07/28 09:58:30;;;;;;;6.35;4.10;;;22.40;99.90;;;;;;5093104;28;20111;-70
2023/07/28 10:00:57;;;;;;;7.60;3.67;;;22.50;99.90;;;;;;5092897;28;20075;-71
2023/07/28 10:03:23;;;;;;;7.60;4.05;;;22.60;99.90;;;;;;5093537;28;20107;-70
2023/07/28 10:05:49;;;;;;;6.28;3.85;;;22.70;99.90;;;;;;5092726;28;20111;-69
2023/07/28 10:08:16;;;;;;;7.10;3.70;;;22.60;99.90;;;;;;5092837;28;20056;-71
2023/07/28 10:10:41;;;;;;;5.18;3.70;;;22.50;99.90;;;;;;5092379;28;20028;-69
2023/07/28 10:13:19;;;;;;;4.55;3.25;;;22.70;99.90;;;;;;5093474;28;20027;-70
2023/07/28 10:15:47;;;;;;;4.82;3.72;;;22.80;99.90;;;;;;5096231;28;20106;-70
2023/07/28 10:18:13;;;;;;;6.53;3.00;;;22.90;99.90;;;;;;5097039;28;20032;-70
2023/07/28 10:20:42;;;;;;;4.97;3.50;;;23.00;99.90;;;;;;5096202;28;20063;-69
2023/07/28 10:23:21;;;;;;;4.78;3.35;;;23.10;99.90;;;;;;5100182;28;20024;-70
2023/07/28 10:26:05;;;;;;;3.27;2.93;;;23.10;99.90;;;;;;5102138;28;20028;-70
2023/07/28 10:28:32;;;;;;;4.22;2.53;;;23.00;99.90;;;;;;5097411;28;20255;-71
2023/07/28 10:30:59;;;;;;;4.95;2.80;;;22.90;99.90;;;;;;5092131;28;20557;-70
2023/07/28 10:33:44;;;;;;;7.38;4.60;;;22.90;99.90;;;;;;5092805;28;20107;-70
2023/07/28 10:36:21;;;;;;;4.35;3.10;;;22.90;99.90;;;;;;5074816;28;20382;-70
2023/07/28 10:39:12;;;;;;;3.55;2.80;;;22.80;99.90;;;;;;5092011;28;20028;-71
2023/07/28 10:41:38;;;;;;;4.68;3.30;;;22.80;99.90;;;;;;5092797;28;20020;-70
2023/07/28 10:44:04;;;;;;;4.63;3.10;;;22.80;99.90;;;;;;5091746;28;20536;-70
2023/07/28 10:46:29;;;;;;;4.28;2.80;;;22.80;99.90;;;;;;5092384;28;20459;-69
2023/07/28 10:48:55;;;;;;;4.25;2.88;;;22.80;99.90;;;;;;5092034;28;20029;-69
2023/07/28 10:51:25;;;;;;;3.90;3.10;;;22.90;99.90;;;;;;5092571;28;20115;-70
2023/07/28 10:53:54;;;;;;;4.15;3.10;;;22.90;99.90;;;;;;5091611;28;20031;-70
2023/07/28 10:56:20;;;;;;;3.13;2.80;;;22.90;99.90;;;;;;5092460;28;20150;-70
2023/07/28 10:58:45;;;;;;;3.88;3.10;;;22.90;99.90;;;;;;5091572;28;20028;-69
2023/07/28 11:01:11;;;;;;;3.97;3.05;;;22.90;99.90;;;;;;5092642;28;20032;-70
2023/07/28 11:03:37;;;;;;;3.97;3.22;;;22.90;99.90;;;;;;5092350;28;20032;-70
2023/07/28 11:06:04;;;;;;;5.55;3.30;;;23.00;99.90;;;;;;5091522;28;20020;-69
2023/07/28 11:08:29;;;;;;;6.93;3.33;;;23.20;99.90;;;;;;5092242;28;20028;-71
2023/07/28 11:10:55;;;;;;;4.95;2.83;;;23.40;99.90;;;;;;5091296;28;20043;-70
2023/07/28 11:13:22;;;;;;;5.18;2.78;;;23.70;99.90;;;;;;5092065;28;20046;-71
2023/07/28 11:15:48;;;;;;;4.40;2.95;;;24.20;99.90;;;;;;5091218;28;20051;-70
2023/07/28 11:18:15;;;;;;;3.53;3.05;;;24.40;99.90;;;;;;5092093;28;20464;-70
2023/07/28 11:20:41;;;;;;;3.30;2.20;;;24.60;99.90;;;;;;5091398;28;20475;-70
2023/07/28 11:23:08;;;;;;;4.85;2.53;;;24.60;99.90;;;;;;5091533;28;20174;-70
2023/07/28 11:25:35;;;;;;;5.50;2.75;;;24.60;99.90;;;;;;5091925;28;20032;-70
2023/07/28 11:28:05;;;;;;;2.15;1.95;;;24.80;99.90;;;;;;5124074;28;20084;-70
2023/07/28 11:30:33;;;;;;;2.72;2.05;;;24.90;99.90;;;;;;5135034;27;20135;-70
2023/07/28 11:32:59;;;;;;;5.40;2.55;;;25.10;99.90;;;;;;5136182;27;20068;-70
2023/07/28 11:35:24;;;;;;;2.90;2.58;;;25.20;99.90;;;;;;5136603;27;20083;-70
2023/07/28 11:37:52;;;;;;;3.95;1.92;;;25.30;99.90;;;;;;5135980;27;20035;-69
2023/07/28 11:40:20;;;;;;;1.80;1.42;;;25.30;99.90;;;;;;5136757;27;20031;-70
2023/07/28 11:42:54;;;;;;;3.78;1.70;;;25.40;99.90;;;;;;5136065;27;20473;-69
2023/07/28 11:45:22;;;;;;;2.40;1.60;;;25.40;99.90;;;;;;5136571;27;20035;-70
2023/07/28 11:47:56;;;;;;;2.25;1.35;;;25.60;99.90;;;;;;5135892;27;20378;-69
2023/07/28 11:50:50;;;;;;;1.50;1.40;;;25.70;99.90;;;;;;5136455;27;20121;-70
2023/07/28 11:53:16;;;;;;;1.55;1.40;;;25.80;99.90;;;;;;5133335;27;20428;-70
2023/07/28 11:55:41;;;;;;;1.85;1.40;;;25.90;99.90;;;;;;5136561;27;20027;-70
2023/07/28 11:58:07;;;;;;;2.95;1.00;;;25.90;99.90;;;;;;5135227;27;20023;-70
2023/07/28 12:00:37;;;;;;;1.50;1.20;;;25.70;99.90;;;;;;5136118;27;20033;-71
2023/07/28 12:03:12;;;;;;;2.00;1.30;;;25.50;99.90;;;;;;5135567;27;20042;-70
2023/07/28 12:05:38;;;;;;;1.20;1.10;;;25.40;99.90;;;;;;5136081;27;20382;-70
2023/07/28 12:08:04;;;;;;;1.60;1.27;;;25.30;99.90;;;;;;5135477;27;20578;-71
2023/07/28 12:10:31;;;;;;;2.65;1.70;;;25.10;99.90;;;;;;5136155;27;20073;-70
2023/07/28 12:13:03;;;;;;;4.05;1.50;;;24.80;99.90;;;;;;5135431;27;20034;-70
2023/07/28 12:15:31;;;;;;;2.08;1.85;;;24.40;99.90;;;;;;5136277;27;20460;-70
2023/07/28 12:18:13;;;;;;;2.92;2.22;;;24.00;99.90;;;;;;5135402;27;20027;-69
2023/07/28 12:20:47;;;;;;;3.38;2.30;;;23.50;99.90;;;;;;5135230;27;20096;-70
2023/07/28 12:23:15;;;;;;;3.00;2.47;;;23.20;99.90;;;;;;5135879;27;20023;-70
2023/07/28 12:25:40;;;;;;;2.67;2.40;;;22.90;99.90;;;;;;5136229;27;20355;-71
2023/07/28 12:28:06;;;;;;;4.03;2.50;;;22.80;99.90;;;;;;5117781;27;20026;-70
2023/07/28 12:30:33;;;;;;;3.80;2.42;;;22.70;99.90;;;;;;5115611;28;20023;-70
2023/07/28 12:32:59;;;;;;;2.97;2.60;;;22.60;99.90;;;;;;5114550;28;20106;-70
2023/07/28 12:35:26;;;;;;;4.50;2.47;;;22.60;99.90;;;;;;5115212;28;20135;-70
2023/07/28 12:37:52;;;;;;;2.33;2.13;;;22.70;99.90;;;;;;5114160;28;20035;-70
2023/07/28 12:40:21;;;;;;;3.85;2.40;;;22.70;99.90;;;;;;5115085;28;20023;-70
2023/07/28 12:42:47;;;;;;;4.30;2.00;;;22.70;99.90;;;;;;5114871;28;20031;-70
2023/07/28 12:45:14;;;;;;;3.92;2.00;;;22.80;99.90;;;;;;5114876;28;20032;-71
2023/07/28 12:47:40;;;;;;;2.38;2.17;;;22.90;99.90;;;;;;5115089;28;20051;-72
2023/07/28 12:50:06;;;;;;;2.25;2.05;;;23.00;99.90;;;;;;5114221;28;20071;-70
2023/07/28 12:52:32;;;;;;;2.17;1.85;;;23.20;99.90;;;;;;5114974;28;20130;-71
2023/07/28 12:54:58;;;;;;;2.20;2.00;;;23.40;99.90;;;;;;5114140;28;20476;-70
2023/07/28 12:57:24;;;;;;;2.17;1.95;;;23.60;99.90;;;;;;5114921;28;20122;-72
2023/07/28 12:59:50;;;;;;;3.20;1.67;;;23.90;99.90;;;;;;5114330;28;20103;-70
2023/07/28 13:02:15;;;;;;;1.92;1.52;;;24.10;99.90;;;;;;5114635;28;20042;-70
2023/07/28 13:04:41;;;;;;;2.28;1.75;;;24.10;99.90;;;;;;5114747;28;20035;-71
2023/07/28 13:07:06;;;;;;;4.30;1.92;;;24.20;99.90;;;;;;5113909;28;20020;-71
2023/07/28 13:09:32;;;;;;;1.73;1.63;;;24.10;99.90;;;;;;5114463;28;20028;-70
2023/07/28 13:11:58;;;;;;;2.00;1.63;;;24.10;99.90;;;;;;5113532;28;20066;-71